Main page
METAR-TAF:

METAR-TAF

Airports :

Zahedan Airport

Zahedan, Iran

latitude: 29-28N, longitude: 060-53E, elevation: 1370 m

Current weather observation

The report was made 15 minutes ago, at 08:00 UTC
Wind 18 kt from the North/Northeast
Temperature 33°C
Humidity 12%
Pressure 1012 hPa
Visibility: 3000 m
sand

METAR: OIZH 250800Z 03018KT 3000 SA NSC 33/M00 Q1012 A2989 NOSIG

Time: 12:45 (08:15 UTC)

Forecast

The report was made 2 hours and 45 minutes ago, at 05:30 UTC
Forecast valid from 25 at 06 UTC to 26 at 12 UTC
Wind 12 kt from the North/Northeast
Visibility: 8000 m
Temporary
from 25 at 09 UTC to 25 at 16 UTC
Wind 17 kt from the North with gusts up to 25 kt
Visibility: 3000 m
sand
Temporary
from 26 at 08 UTC to 26 at 12 UTC
Wind 19 kt from the North with gusts up to 27 kt
Visibility: 3000 m
sand

TAF: OIZH 250530Z 2506/2612 03006MPS 8000 NSC TEMPO 2509/2516 01009G13MPS 3000 SA TEMPO 2608/2612 01010G14MPS 3000 SA

Weather observations and forecasts of more than 4000 airports (METAR and TAF reports).

The available stations are represented by yellow and red dots on the map.

Hover mouse over dot to see the name of the station.

Then click to see weather observations and forecasts.

To change the map : click on the green buttons with a black cross to zoom in, on the green button with a dash to zoom out, or on the green arrows for adjacent maps.


METAR-TAF: